sensor_id;sensor_type;location;lat;lon;timestamp;P1;durP1;ratioP1;P2;durP2;ratioP2
7289;SDS011;63176;52.678;13.250;2022-12-15T00:00:58;20.80;;;12.32;;
7289;SDS011;63176;52.678;13.250;2022-12-15T00:06:55;21.52;;;11.40;;
7289;SDS011;63176;52.678;13.250;2022-12-15T00:23:08;18.42;;;11.02;;
7289;SDS011;63176;52.678;13.250;2022-12-15T00:25:54;18.45;;;10.65;;
7289;SDS011;63176;52.678;13.250;2022-12-15T00:28:37;18.42;;;11.32;;
7289;SDS011;63176;52.678;13.250;2022-12-15T00:31:22;27.02;;;13.65;;
7289;SDS011;63176;52.678;13.250;2022-12-15T00:34:06;24.40;;;13.85;;
7289;SDS011;63176;52.678;13.250;2022-12-15T00:36:50;23.75;;;12.52;;
7289;SDS011;63176;52.678;13.250;2022-12-15T00:39:34;22.02;;;11.43;;
7289;SDS011;63176;52.678;13.250;2022-12-15T00:42:00;17.87;;;12.30;;
7289;SDS011;63176;52.678;13.250;2022-12-15T00:44:25;19.27;;;10.57;;
7289;SDS011;63176;52.678;13.250;2022-12-15T00:46:51;25.07;;;13.00;;
7289;SDS011;63176;52.678;13.250;2022-12-15T00:49:23;27.65;;;10.60;;
7289;SDS011;63176;52.678;13.250;2022-12-15T00:52:08;15.68;;;10.20;;
7289;SDS011;63176;52.678;13.250;2022-12-15T00:54:53;27.15;;;11.38;;
7289;SDS011;63176;52.678;13.250;2022-12-15T00:57:37;16.35;;;9.02;;
7289;SDS011;63176;52.678;13.250;2022-12-15T01:00:22;22.05;;;11.27;;
7289;SDS011;63176;52.678;13.250;2022-12-15T01:03:14;15.63;;;10.50;;
7289;SDS011;63176;52.678;13.250;2022-12-15T01:06:05;27.33;;;9.20;;
7289;SDS011;63176;52.678;13.250;2022-12-15T01:08:50;22.77;;;10.27;;
7289;SDS011;63176;52.678;13.250;2022-12-15T01:11:34;18.15;;;10.15;;
7289;SDS011;63176;52.678;13.250;2022-12-15T01:14:18;27.17;;;8.88;;
7289;SDS011;63176;52.678;13.250;2022-12-15T01:17:02;18.13;;;8.45;;
7289;SDS011;63176;52.678;13.250;2022-12-15T01:19:46;27.40;;;11.35;;
7289;SDS011;63176;52.678;13.250;2022-12-15T01:22:30;14.15;;;7.70;;
7289;SDS011;63176;52.678;13.250;2022-12-15T01:24:56;14.10;;;8.23;;
7289;SDS011;63176;52.678;13.250;2022-12-15T01:27:21;19.47;;;8.47;;
7289;SDS011;63176;52.678;13.250;2022-12-15T01:29:47;14.87;;;9.03;;
7289;SDS011;63176;52.678;13.250;2022-12-15T01:32:13;17.07;;;7.40;;
7289;SDS011;63176;52.678;13.250;2022-12-15T01:34:38;19.57;;;9.70;;
7289;SDS011;63176;52.678;13.250;2022-12-15T01:37:04;14.03;;;9.33;;
7289;SDS011;63176;52.678;13.250;2022-12-15T01:39:29;22.97;;;10.57;;
7289;SDS011;63176;52.678;13.250;2022-12-15T01:42:15;19.90;;;10.48;;
7289;SDS011;63176;52.678;13.250;2022-12-15T01:44:42;19.70;;;8.60;;
7289;SDS011;63176;52.678;13.250;2022-12-15T01:47:09;21.70;;;10.93;;
7289;SDS011;63176;52.678;13.250;2022-12-15T01:49:37;21.80;;;8.98;;
7289;SDS011;63176;52.678;13.250;2022-12-15T01:52:04;17.67;;;8.18;;
7289;SDS011;63176;52.678;13.250;2022-12-15T01:54:50;32.88;;;11.23;;
7289;SDS011;63176;52.678;13.250;2022-12-15T01:57:21;22.20;;;8.65;;
7289;SDS011;63176;52.678;13.250;2022-12-15T01:59:54;11.68;;;8.45;;
7289;SDS011;63176;52.678;13.250;2022-12-15T02:02:24;19.40;;;10.32;;
7289;SDS011;63176;52.678;13.250;2022-12-15T02:04:53;18.40;;;9.18;;
7289;SDS011;63176;52.678;13.250;2022-12-15T02:07:21;14.80;;;9.95;;
7289;SDS011;63176;52.678;13.250;2022-12-15T02:09:48;20.45;;;10.15;;
7289;SDS011;63176;52.678;13.250;2022-12-15T02:17:36;15.18;;;8.10;;
7289;SDS011;63176;52.678;13.250;2022-12-15T02:31:24;8.90;;;7.03;;
7289;SDS011;63176;52.678;13.250;2022-12-15T02:34:17;18.23;;;10.77;;
7289;SDS011;63176;52.678;13.250;2022-12-15T02:37:00;17.00;;;8.30;;
7289;SDS011;63176;52.678;13.250;2022-12-15T02:39:29;14.52;;;9.02;;
7289;SDS011;63176;52.678;13.250;2022-12-15T02:41:55;14.07;;;7.27;;
7289;SDS011;63176;52.678;13.250;2022-12-15T02:44:23;12.43;;;6.80;;
7289;SDS011;63176;52.678;13.250;2022-12-15T03:00:19;19.67;;;9.75;;
7289;SDS011;63176;52.678;13.250;2022-12-15T03:02:50;15.02;;;10.13;;
7289;SDS011;63176;52.678;13.250;2022-12-15T03:05:17;15.27;;;9.10;;
7289;SDS011;63176;52.678;13.250;2022-12-15T03:07:44;19.23;;;8.90;;
7289;SDS011;63176;52.678;13.250;2022-12-15T03:10:14;17.88;;;10.23;;
7289;SDS011;63176;52.678;13.250;2022-12-15T03:12:40;18.83;;;10.97;;
7289;SDS011;63176;52.678;13.250;2022-12-15T03:15:06;27.50;;;11.73;;
7289;SDS011;63176;52.678;13.250;2022-12-15T03:17:31;23.80;;;10.13;;
7289;SDS011;63176;52.678;13.250;2022-12-15T03:19:57;34.23;;;13.20;;
7289;SDS011;63176;52.678;13.250;2022-12-15T03:22:23;22.60;;;11.30;;
7289;SDS011;63176;52.678;13.250;2022-12-15T03:24:49;18.13;;;11.05;;
7289;SDS011;63176;52.678;13.250;2022-12-15T03:27:15;25.30;;;11.33;;
7289;SDS011;63176;52.678;13.250;2022-12-15T03:29:40;32.60;;;12.30;;
7289;SDS011;63176;52.678;13.250;2022-12-15T03:32:06;23.87;;;8.87;;
7289;SDS011;63176;52.678;13.250;2022-12-15T03:34:32;33.28;;;12.88;;
7289;SDS011;63176;52.678;13.250;2022-12-15T03:36:58;17.00;;;10.27;;
7289;SDS011;63176;52.678;13.250;2022-12-15T03:39:23;17.93;;;11.17;;
7289;SDS011;63176;52.678;13.250;2022-12-15T03:41:49;14.93;;;9.23;;
7289;SDS011;63176;52.678;13.250;2022-12-15T03:44:14;13.87;;;7.23;;
7289;SDS011;63176;52.678;13.250;2022-12-15T03:46:40;13.10;;;7.13;;
7289;SDS011;63176;52.678;13.250;2022-12-15T03:52:28;21.55;;;8.20;;
7289;SDS011;63176;52.678;13.250;2022-12-15T03:54:53;20.13;;;8.87;;
7289;SDS011;63176;52.678;13.250;2022-12-15T03:57:19;20.37;;;7.90;;
7289;SDS011;63176;52.678;13.250;2022-12-15T03:59:44;28.60;;;9.90;;
7289;SDS011;63176;52.678;13.250;2022-12-15T04:02:10;15.00;;;8.57;;
7289;SDS011;63176;52.678;13.250;2022-12-15T04:04:36;14.43;;;9.60;;
7289;SDS011;63176;52.678;13.250;2022-12-15T04:07:01;11.67;;;7.30;;
7289;SDS011;63176;52.678;13.250;2022-12-15T04:09:27;16.17;;;8.33;;
7289;SDS011;63176;52.678;13.250;2022-12-15T04:11:53;17.47;;;6.47;;
7289;SDS011;63176;52.678;13.250;2022-12-15T04:14:18;15.77;;;6.63;;
7289;SDS011;63176;52.678;13.250;2022-12-15T04:16:44;18.50;;;8.67;;
7289;SDS011;63176;52.678;13.250;2022-12-15T04:19:09;14.20;;;7.43;;
7289;SDS011;63176;52.678;13.250;2022-12-15T04:21:53;15.35;;;6.80;;
7289;SDS011;63176;52.678;13.250;2022-12-15T04:24:20;17.95;;;9.35;;
7289;SDS011;63176;52.678;13.250;2022-12-15T04:27:04;11.32;;;7.38;;
7289;SDS011;63176;52.678;13.250;2022-12-15T04:29:48;15.18;;;6.85;;
7289;SDS011;63176;52.678;13.250;2022-12-15T04:32:32;16.73;;;7.32;;
7289;SDS011;63176;52.678;13.250;2022-12-15T04:35:16;19.27;;;9.75;;
7289;SDS011;63176;52.678;13.250;2022-12-15T04:38:00;12.68;;;5.93;;
7289;SDS011;63176;52.678;13.250;2022-12-15T04:40:44;12.63;;;7.13;;
7289;SDS011;63176;52.678;13.250;2022-12-15T04:43:28;13.95;;;6.85;;
7289;SDS011;63176;52.678;13.250;2022-12-15T04:46:12;12.63;;;5.90;;
7289;SDS011;63176;52.678;13.250;2022-12-15T04:48:56;9.95;;;5.43;;
7289;SDS011;63176;52.678;13.250;2022-12-15T04:51:40;14.48;;;7.28;;
7289;SDS011;63176;52.678;13.250;2022-12-15T04:54:25;11.38;;;5.18;;
7289;SDS011;63176;52.678;13.250;2022-12-15T04:57:09;15.55;;;6.68;;
7289;SDS011;63176;52.678;13.250;2022-12-15T04:59:53;16.30;;;8.45;;
7289;SDS011;63176;52.678;13.250;2022-12-15T05:02:37;14.82;;;8.70;;
7289;SDS011;63176;52.678;13.250;2022-12-15T05:05:22;15.90;;;7.22;;
7289;SDS011;63176;52.678;13.250;2022-12-15T05:08:06;25.33;;;6.63;;
7289;SDS011;63176;52.678;13.250;2022-12-15T05:10:49;13.70;;;7.35;;
7289;SDS011;63176;52.678;13.250;2022-12-15T05:13:34;18.42;;;5.97;;
7289;SDS011;63176;52.678;13.250;2022-12-15T05:16:18;11.68;;;5.32;;
7289;SDS011;63176;52.678;13.250;2022-12-15T05:19:02;14.30;;;8.00;;
7289;SDS011;63176;52.678;13.250;2022-12-15T05:21:46;22.83;;;10.48;;
7289;SDS011;63176;52.678;13.250;2022-12-15T05:24:30;15.77;;;7.55;;
7289;SDS011;63176;52.678;13.250;2022-12-15T05:27:14;13.55;;;7.38;;
7289;SDS011;63176;52.678;13.250;2022-12-15T05:29:58;9.95;;;7.03;;
7289;SDS011;63176;52.678;13.250;2022-12-15T05:32:42;10.98;;;5.57;;
7289;SDS011;63176;52.678;13.250;2022-12-15T05:35:08;18.20;;;9.10;;
7289;SDS011;63176;52.678;13.250;2022-12-15T05:37:33;22.67;;;9.73;;
7289;SDS011;63176;52.678;13.250;2022-12-15T05:39:59;15.43;;;6.20;;
7289;SDS011;63176;52.678;13.250;2022-12-15T05:42:25;15.50;;;6.63;;
7289;SDS011;63176;52.678;13.250;2022-12-15T05:44:50;12.37;;;5.60;;
7289;SDS011;63176;52.678;13.250;2022-12-15T05:47:16;16.17;;;6.47;;
7289;SDS011;63176;52.678;13.250;2022-12-15T05:49:41;13.50;;;6.63;;
7289;SDS011;63176;52.678;13.250;2022-12-15T05:52:07;13.50;;;7.43;;
7289;SDS011;63176;52.678;13.250;2022-12-15T05:54:33;11.68;;;7.55;;
7289;SDS011;63176;52.678;13.250;2022-12-15T05:56:59;12.57;;;7.10;;
7289;SDS011;63176;52.678;13.250;2022-12-15T05:59:25;13.00;;;7.30;;
7289;SDS011;63176;52.678;13.250;2022-12-15T06:01:50;13.43;;;7.03;;
7289;SDS011;63176;52.678;13.250;2022-12-15T06:04:16;10.67;;;6.13;;
7289;SDS011;63176;52.678;13.250;2022-12-15T06:06:42;15.67;;;8.20;;
7289;SDS011;63176;52.678;13.250;2022-12-15T06:09:07;14.20;;;7.50;;
7289;SDS011;63176;52.678;13.250;2022-12-15T06:11:33;19.60;;;7.95;;
7289;SDS011;63176;52.678;13.250;2022-12-15T06:13:59;19.90;;;8.20;;
7289;SDS011;63176;52.678;13.250;2022-12-15T06:16:25;12.20;;;7.77;;
7289;SDS011;63176;52.678;13.250;2022-12-15T06:18:55;11.45;;;6.35;;
7289;SDS011;63176;52.678;13.250;2022-12-15T06:21:23;12.98;;;7.70;;
7289;SDS011;63176;52.678;13.250;2022-12-15T06:23:51;18.00;;;6.75;;
7289;SDS011;63176;52.678;13.250;2022-12-15T06:26:18;11.90;;;7.15;;
7289;SDS011;63176;52.678;13.250;2022-12-15T06:28:53;16.08;;;7.88;;
7289;SDS011;63176;52.678;13.250;2022-12-15T06:31:20;17.60;;;7.20;;
7289;SDS011;63176;52.678;13.250;2022-12-15T06:33:47;16.27;;;6.95;;
7289;SDS011;63176;52.678;13.250;2022-12-15T06:36:14;12.60;;;6.18;;
7289;SDS011;63176;52.678;13.250;2022-12-15T06:38:41;14.82;;;7.85;;
7289;SDS011;63176;52.678;13.250;2022-12-15T06:41:07;14.52;;;8.00;;
7289;SDS011;63176;52.678;13.250;2022-12-15T06:43:34;13.55;;;7.65;;
7289;SDS011;63176;52.678;13.250;2022-12-15T06:46:00;12.93;;;8.73;;
7289;SDS011;63176;52.678;13.250;2022-12-15T06:48:26;15.73;;;8.75;;
7289;SDS011;63176;52.678;13.250;2022-12-15T06:50:53;15.68;;;6.30;;
7289;SDS011;63176;52.678;13.250;2022-12-15T06:53:19;18.50;;;7.25;;
7289;SDS011;63176;52.678;13.250;2022-12-15T06:55:46;11.73;;;6.25;;
7289;SDS011;63176;52.678;13.250;2022-12-15T06:58:12;13.07;;;7.07;;
7289;SDS011;63176;52.678;13.250;2022-12-15T07:00:39;11.30;;;7.90;;
7289;SDS011;63176;52.678;13.250;2022-12-15T07:03:08;10.55;;;7.53;;
7289;SDS011;63176;52.678;13.250;2022-12-15T07:05:41;13.88;;;6.50;;
7289;SDS011;63176;52.678;13.250;2022-12-15T07:08:11;27.60;;;8.18;;
7289;SDS011;63176;52.678;13.250;2022-12-15T07:10:38;14.05;;;6.47;;
7289;SDS011;63176;52.678;13.250;2022-12-15T07:13:05;8.00;;;4.82;;
7289;SDS011;63176;52.678;13.250;2022-12-15T07:15:35;13.70;;;6.82;;
7289;SDS011;63176;52.678;13.250;2022-12-15T07:18:01;18.15;;;6.82;;
7289;SDS011;63176;52.678;13.250;2022-12-15T07:20:27;18.87;;;8.13;;
7289;SDS011;63176;52.678;13.250;2022-12-15T07:22:53;13.17;;;7.10;;
7289;SDS011;63176;52.678;13.250;2022-12-15T07:25:18;17.10;;;8.30;;
7289;SDS011;63176;52.678;13.250;2022-12-15T07:27:44;15.60;;;7.90;;
7289;SDS011;63176;52.678;13.250;2022-12-15T07:30:11;13.23;;;6.53;;
7289;SDS011;63176;52.678;13.250;2022-12-15T07:32:37;12.18;;;5.47;;
7289;SDS011;63176;52.678;13.250;2022-12-15T07:35:03;18.60;;;6.50;;
7289;SDS011;63176;52.678;13.250;2022-12-15T07:37:31;11.63;;;5.93;;
7289;SDS011;63176;52.678;13.250;2022-12-15T07:39:56;12.63;;;4.07;;
7289;SDS011;63176;52.678;13.250;2022-12-15T07:42:22;7.07;;;4.33;;
7289;SDS011;63176;52.678;13.250;2022-12-15T07:44:48;11.10;;;6.40;;
7289;SDS011;63176;52.678;13.250;2022-12-15T07:47:13;14.23;;;6.23;;
7289;SDS011;63176;52.678;13.250;2022-12-15T07:49:39;11.57;;;5.57;;
7289;SDS011;63176;52.678;13.250;2022-12-15T07:52:05;11.90;;;7.80;;
7289;SDS011;63176;52.678;13.250;2022-12-15T07:54:30;12.23;;;6.10;;
7289;SDS011;63176;52.678;13.250;2022-12-15T07:56:56;14.43;;;6.53;;
7289;SDS011;63176;52.678;13.250;2022-12-15T07:59:24;8.60;;;5.15;;
7289;SDS011;63176;52.678;13.250;2022-12-15T08:01:50;11.38;;;6.75;;
7289;SDS011;63176;52.678;13.250;2022-12-15T08:04:16;11.32;;;6.47;;
7289;SDS011;63176;52.678;13.250;2022-12-15T08:06:42;13.10;;;6.38;;
7289;SDS011;63176;52.678;13.250;2022-12-15T08:09:08;14.13;;;6.93;;
7289;SDS011;63176;52.678;13.250;2022-12-15T08:11:34;9.45;;;6.43;;
7289;SDS011;63176;52.678;13.250;2022-12-15T08:14:00;10.27;;;7.20;;
7289;SDS011;63176;52.678;13.250;2022-12-15T08:16:26;12.90;;;6.57;;
7289;SDS011;63176;52.678;13.250;2022-12-15T08:18:53;19.20;;;7.13;;
7289;SDS011;63176;52.678;13.250;2022-12-15T08:21:21;11.60;;;6.32;;
7289;SDS011;63176;52.678;13.250;2022-12-15T08:23:47;8.77;;;5.45;;
7289;SDS011;63176;52.678;13.250;2022-12-15T08:26:14;12.13;;;6.38;;
7289;SDS011;63176;52.678;13.250;2022-12-15T08:28:41;15.27;;;6.75;;
7289;SDS011;63176;52.678;13.250;2022-12-15T08:31:08;12.48;;;5.65;;
7289;SDS011;63176;52.678;13.250;2022-12-15T08:33:39;13.50;;;6.88;;
7289;SDS011;63176;52.678;13.250;2022-12-15T08:36:07;13.30;;;6.65;;
7289;SDS011;63176;52.678;13.250;2022-12-15T08:38:36;13.50;;;6.70;;
7289;SDS011;63176;52.678;13.250;2022-12-15T08:41:10;12.80;;;6.00;;
7289;SDS011;63176;52.678;13.250;2022-12-15T08:43:41;9.23;;;8.00;;
7289;SDS011;63176;52.678;13.250;2022-12-15T08:46:07;9.10;;;6.53;;
7289;SDS011;63176;52.678;13.250;2022-12-15T08:48:33;12.33;;;7.83;;
7289;SDS011;63176;52.678;13.250;2022-12-15T08:50:59;11.38;;;7.13;;
7289;SDS011;63176;52.678;13.250;2022-12-15T08:53:26;7.82;;;5.72;;
7289;SDS011;63176;52.678;13.250;2022-12-15T08:55:51;15.97;;;7.70;;
7289;SDS011;63176;52.678;13.250;2022-12-15T08:58:17;10.80;;;5.77;;
7289;SDS011;63176;52.678;13.250;2022-12-15T09:00:43;19.10;;;7.80;;
7289;SDS011;63176;52.678;13.250;2022-12-15T09:03:08;16.23;;;7.20;;
7289;SDS011;63176;52.678;13.250;2022-12-15T09:05:35;10.07;;;6.13;;
7289;SDS011;63176;52.678;13.250;2022-12-15T09:08:01;10.43;;;5.78;;
7289;SDS011;63176;52.678;13.250;2022-12-15T09:10:27;14.60;;;8.15;;
7289;SDS011;63176;52.678;13.250;2022-12-15T09:12:53;11.30;;;6.97;;
7289;SDS011;63176;52.678;13.250;2022-12-15T09:15:19;15.27;;;7.00;;
7289;SDS011;63176;52.678;13.250;2022-12-15T09:17:45;15.57;;;8.23;;
7289;SDS011;63176;52.678;13.250;2022-12-15T09:20:11;13.27;;;7.53;;
7289;SDS011;63176;52.678;13.250;2022-12-15T09:22:38;19.48;;;9.10;;
7289;SDS011;63176;52.678;13.250;2022-12-15T09:25:04;16.17;;;8.10;;
7289;SDS011;63176;52.678;13.250;2022-12-15T09:27:30;24.52;;;7.72;;
7289;SDS011;63176;52.678;13.250;2022-12-15T09:29:56;12.80;;;6.77;;
7289;SDS011;63176;52.678;13.250;2022-12-15T09:32:22;16.63;;;8.93;;
7289;SDS011;63176;52.678;13.250;2022-12-15T09:34:51;13.00;;;7.78;;
7289;SDS011;63176;52.678;13.250;2022-12-15T09:37:17;11.13;;;7.07;;
7289;SDS011;63176;52.678;13.250;2022-12-15T09:39:43;18.08;;;9.57;;
7289;SDS011;63176;52.678;13.250;2022-12-15T09:42:42;16.17;;;7.53;;
7289;SDS011;63176;52.678;13.250;2022-12-15T09:45:06;12.80;;;7.72;;
7289;SDS011;63176;52.678;13.250;2022-12-15T09:47:41;15.93;;;7.03;;
7289;SDS011;63176;52.678;13.250;2022-12-15T09:50:15;19.13;;;8.10;;
7289;SDS011;63176;52.678;13.250;2022-12-15T09:52:47;13.43;;;7.65;;
7289;SDS011;63176;52.678;13.250;2022-12-15T09:55:16;13.63;;;7.65;;
7289;SDS011;63176;52.678;13.250;2022-12-15T09:57:57;11.75;;;6.95;;
7289;SDS011;63176;52.678;13.250;2022-12-15T10:00:36;14.20;;;8.05;;
7289;SDS011;63176;52.678;13.250;2022-12-15T10:03:09;17.02;;;8.50;;
7289;SDS011;63176;52.678;13.250;2022-12-15T10:06:19;11.00;;;6.60;;
7289;SDS011;63176;52.678;13.250;2022-12-15T10:11:21;18.05;;;8.32;;
7289;SDS011;63176;52.678;13.250;2022-12-15T10:17:27;17.38;;;9.10;;
7289;SDS011;63176;52.678;13.250;2022-12-15T10:23:34;15.63;;;6.50;;
7289;SDS011;63176;52.678;13.250;2022-12-15T10:40:17;11.10;;;7.10;;
7289;SDS011;63176;52.678;13.250;2022-12-15T10:42:49;22.15;;;8.13;;
7289;SDS011;63176;52.678;13.250;2022-12-15T10:48:01;14.57;;;8.13;;
7289;SDS011;63176;52.678;13.250;2022-12-15T10:50:28;12.60;;;6.65;;
7289;SDS011;63176;52.678;13.250;2022-12-15T10:52:54;11.25;;;7.00;;
7289;SDS011;63176;52.678;13.250;2022-12-15T10:55:39;16.40;;;8.00;;
7289;SDS011;63176;52.678;13.250;2022-12-15T10:58:16;13.10;;;7.18;;
7289;SDS011;63176;52.678;13.250;2022-12-15T11:00:47;17.05;;;9.35;;
7289;SDS011;63176;52.678;13.250;2022-12-15T11:03:28;13.05;;;7.40;;
7289;SDS011;63176;52.678;13.250;2022-12-15T11:05:54;18.93;;;9.17;;
7289;SDS011;63176;52.678;13.250;2022-12-15T11:08:21;13.57;;;7.70;;
7289;SDS011;63176;52.678;13.250;2022-12-15T11:10:57;13.43;;;8.02;;
7289;SDS011;63176;52.678;13.250;2022-12-15T11:13:42;12.75;;;7.15;;
7289;SDS011;63176;52.678;13.250;2022-12-15T11:16:31;17.13;;;7.70;;
7289;SDS011;63176;52.678;13.250;2022-12-15T11:19:39;14.60;;;7.87;;
7289;SDS011;63176;52.678;13.250;2022-12-15T11:22:00;16.60;;;8.73;;
7289;SDS011;63176;52.678;13.250;2022-12-15T11:27:04;23.85;;;8.45;;
7289;SDS011;63176;52.678;13.250;2022-12-15T11:32:24;14.10;;;7.97;;
7289;SDS011;63176;52.678;13.250;2022-12-15T11:35:00;12.05;;;6.47;;
7289;SDS011;63176;52.678;13.250;2022-12-15T11:46:02;9.80;;;6.95;;
7289;SDS011;63176;52.678;13.250;2022-12-15T11:54:28;13.80;;;8.70;;
7289;SDS011;63176;52.678;13.250;2022-12-15T12:00:08;18.30;;;8.95;;
7289;SDS011;63176;52.678;13.250;2022-12-15T12:02:54;12.40;;;7.80;;
7289;SDS011;63176;52.678;13.250;2022-12-15T12:11:23;16.77;;;7.30;;
7289;SDS011;63176;52.678;13.250;2022-12-15T12:19:30;18.48;;;8.07;;
7289;SDS011;63176;52.678;13.250;2022-12-15T12:24:51;15.00;;;8.07;;
7289;SDS011;63176;52.678;13.250;2022-12-15T12:27:55;13.75;;;8.23;;
7289;SDS011;63176;52.678;13.250;2022-12-15T12:30:24;20.38;;;9.18;;
7289;SDS011;63176;52.678;13.250;2022-12-15T12:35:59;15.13;;;7.95;;
7289;SDS011;63176;52.678;13.250;2022-12-15T12:38:47;16.52;;;7.70;;
7289;SDS011;63176;52.678;13.250;2022-12-15T12:44:23;19.20;;;9.50;;
7289;SDS011;63176;52.678;13.250;2022-12-15T12:46:56;21.27;;;9.27;;
7289;SDS011;63176;52.678;13.250;2022-12-15T12:49:29;16.80;;;8.45;;
7289;SDS011;63176;52.678;13.250;2022-12-15T12:52:01;13.90;;;8.05;;
7289;SDS011;63176;52.678;13.250;2022-12-15T12:56:56;19.90;;;8.75;;
7289;SDS011;63176;52.678;13.250;2022-12-15T13:07:03;19.27;;;9.57;;
7289;SDS011;63176;52.678;13.250;2022-12-15T13:10:00;18.55;;;8.88;;
7289;SDS011;63176;52.678;13.250;2022-12-15T13:12:44;15.10;;;8.27;;
7289;SDS011;63176;52.678;13.250;2022-12-15T13:17:53;17.55;;;9.00;;
7289;SDS011;63176;52.678;13.250;2022-12-15T13:20:37;11.60;;;6.82;;
7289;SDS011;63176;52.678;13.250;2022-12-15T13:33:44;17.15;;;8.38;;
7289;SDS011;63176;52.678;13.250;2022-12-15T13:41:37;19.55;;;9.75;;
7289;SDS011;63176;52.678;13.250;2022-12-15T13:46:55;20.77;;;9.80;;
7289;SDS011;63176;52.678;13.250;2022-12-15T13:49:53;15.60;;;8.75;;
7289;SDS011;63176;52.678;13.250;2022-12-15T13:54:58;18.75;;;8.90;;
7289;SDS011;63176;52.678;13.250;2022-12-15T13:57:26;18.95;;;9.77;;
7289;SDS011;63176;52.678;13.250;2022-12-15T14:00:03;19.95;;;9.55;;
7289;SDS011;63176;52.678;13.250;2022-12-15T14:02:32;13.85;;;8.15;;
7289;SDS011;63176;52.678;13.250;2022-12-15T14:07:48;19.58;;;9.70;;
7289;SDS011;63176;52.678;13.250;2022-12-15T14:10:24;16.75;;;8.50;;
7289;SDS011;63176;52.678;13.250;2022-12-15T14:13:00;16.38;;;7.55;;
7289;SDS011;63176;52.678;13.250;2022-12-15T14:15:33;24.35;;;9.18;;
7289;SDS011;63176;52.678;13.250;2022-12-15T14:18:00;18.67;;;10.23;;
7289;SDS011;63176;52.678;13.250;2022-12-15T14:27:20;16.92;;;7.78;;
7289;SDS011;63176;52.678;13.250;2022-12-15T14:30:07;15.25;;;9.85;;
7289;SDS011;63176;52.678;13.250;2022-12-15T14:33:02;26.15;;;9.25;;
7289;SDS011;63176;52.678;13.250;2022-12-15T14:35:35;13.68;;;7.65;;
7289;SDS011;63176;52.678;13.250;2022-12-15T14:38:06;15.98;;;8.13;;
7289;SDS011;63176;52.678;13.250;2022-12-15T14:40:36;13.20;;;7.25;;
7289;SDS011;63176;52.678;13.250;2022-12-15T14:43:04;18.73;;;10.63;;
7289;SDS011;63176;52.678;13.250;2022-12-15T14:45:35;21.65;;;9.65;;
7289;SDS011;63176;52.678;13.250;2022-12-15T14:48:05;15.88;;;8.63;;
7289;SDS011;63176;52.678;13.250;2022-12-15T14:50:32;16.30;;;7.47;;
7289;SDS011;63176;52.678;13.250;2022-12-15T14:53:00;12.88;;;8.02;;
7289;SDS011;63176;52.678;13.250;2022-12-15T14:55:35;16.55;;;9.02;;
7289;SDS011;63176;52.678;13.250;2022-12-15T14:58:51;17.75;;;8.30;;
7289;SDS011;63176;52.678;13.250;2022-12-15T15:00:58;18.80;;;9.05;;
7289;SDS011;63176;52.678;13.250;2022-12-15T15:03:25;14.02;;;7.97;;
7289;SDS011;63176;52.678;13.250;2022-12-15T15:06:00;15.10;;;7.47;;
7289;SDS011;63176;52.678;13.250;2022-12-15T15:08:31;18.17;;;7.97;;
7289;SDS011;63176;52.678;13.250;2022-12-15T15:11:01;15.15;;;7.47;;
7289;SDS011;63176;52.678;13.250;2022-12-15T15:13:41;18.20;;;9.15;;
7289;SDS011;63176;52.678;13.250;2022-12-15T15:16:12;20.07;;;8.13;;
7289;SDS011;63176;52.678;13.250;2022-12-15T15:18:40;27.23;;;9.10;;
7289;SDS011;63176;52.678;13.250;2022-12-15T15:21:09;20.50;;;9.60;;
7289;SDS011;63176;52.678;13.250;2022-12-15T15:23:40;15.23;;;8.48;;
7289;SDS011;63176;52.678;13.250;2022-12-15T15:26:07;18.70;;;8.93;;
7289;SDS011;63176;52.678;13.250;2022-12-15T15:28:38;17.95;;;8.93;;
7289;SDS011;63176;52.678;13.250;2022-12-15T15:33:52;18.85;;;9.23;;
7289;SDS011;63176;52.678;13.250;2022-12-15T15:36:21;16.08;;;8.18;;
7289;SDS011;63176;52.678;13.250;2022-12-15T15:38:59;20.88;;;10.40;;
7289;SDS011;63176;52.678;13.250;2022-12-15T15:43:56;15.68;;;8.90;;
7289;SDS011;63176;52.678;13.250;2022-12-15T15:46:25;20.40;;;9.55;;
7289;SDS011;63176;52.678;13.250;2022-12-15T15:48:55;19.42;;;10.07;;
7289;SDS011;63176;52.678;13.250;2022-12-15T15:51:23;19.88;;;9.68;;
7289;SDS011;63176;52.678;13.250;2022-12-15T15:53:50;23.98;;;9.10;;
7289;SDS011;63176;52.678;13.250;2022-12-15T15:56:16;12.63;;;8.57;;
7289;SDS011;63176;52.678;13.250;2022-12-15T15:58:43;18.92;;;8.20;;
7289;SDS011;63176;52.678;13.250;2022-12-15T16:01:08;18.77;;;9.10;;
7289;SDS011;63176;52.678;13.250;2022-12-15T16:03:35;19.85;;;10.32;;
7289;SDS011;63176;52.678;13.250;2022-12-15T16:06:01;20.50;;;9.87;;
7289;SDS011;63176;52.678;13.250;2022-12-15T16:08:30;16.65;;;8.98;;
7289;SDS011;63176;52.678;13.250;2022-12-15T16:10:58;23.10;;;10.93;;
7289;SDS011;63176;52.678;13.250;2022-12-15T16:13:24;28.23;;;11.13;;
7289;SDS011;63176;52.678;13.250;2022-12-15T16:15:50;25.58;;;11.68;;
7289;SDS011;63176;52.678;13.250;2022-12-15T16:18:16;23.70;;;12.67;;
7289;SDS011;63176;52.678;13.250;2022-12-15T16:20:42;28.67;;;13.90;;
7289;SDS011;63176;52.678;13.250;2022-12-15T16:23:13;17.83;;;9.27;;
7289;SDS011;63176;52.678;13.250;2022-12-15T16:25:43;20.40;;;10.52;;
7289;SDS011;63176;52.678;13.250;2022-12-15T16:28:11;22.55;;;10.43;;
7289;SDS011;63176;52.678;13.250;2022-12-15T16:30:39;24.05;;;10.38;;
7289;SDS011;63176;52.678;13.250;2022-12-15T16:33:05;19.17;;;9.60;;
7289;SDS011;63176;52.678;13.250;2022-12-15T16:35:31;23.57;;;9.87;;
7289;SDS011;63176;52.678;13.250;2022-12-15T16:37:57;17.13;;;10.40;;
7289;SDS011;63176;52.678;13.250;2022-12-15T16:40:24;20.33;;;10.23;;
7289;SDS011;63176;52.678;13.250;2022-12-15T16:42:57;23.88;;;11.15;;
7289;SDS011;63176;52.678;13.250;2022-12-15T16:45:25;14.60;;;8.55;;
7289;SDS011;63176;52.678;13.250;2022-12-15T16:47:52;16.98;;;9.95;;
7289;SDS011;63176;52.678;13.250;2022-12-15T16:50:20;21.25;;;9.68;;
7289;SDS011;63176;52.678;13.250;2022-12-15T16:52:51;17.80;;;9.77;;
7289;SDS011;63176;52.678;13.250;2022-12-15T16:55:23;27.33;;;10.15;;
7289;SDS011;63176;52.678;13.250;2022-12-15T16:57:53;14.15;;;9.60;;
7289;SDS011;63176;52.678;13.250;2022-12-15T17:00:23;24.00;;;8.63;;
7289;SDS011;63176;52.678;13.250;2022-12-15T17:02:50;21.63;;;10.02;;
7289;SDS011;63176;52.678;13.250;2022-12-15T17:05:17;19.55;;;8.60;;
7289;SDS011;63176;52.678;13.250;2022-12-15T17:07:51;16.55;;;8.40;;
7289;SDS011;63176;52.678;13.250;2022-12-15T17:10:23;12.65;;;7.75;;
7289;SDS011;63176;52.678;13.250;2022-12-15T17:12:51;13.27;;;8.32;;
7289;SDS011;63176;52.678;13.250;2022-12-15T17:17:45;17.00;;;8.60;;
7289;SDS011;63176;52.678;13.250;2022-12-15T17:20:14;17.10;;;8.40;;
7289;SDS011;63176;52.678;13.250;2022-12-15T17:22:41;13.43;;;7.90;;
7289;SDS011;63176;52.678;13.250;2022-12-15T17:25:12;22.08;;;9.15;;
7289;SDS011;63176;52.678;13.250;2022-12-15T17:27:44;15.77;;;9.77;;
7289;SDS011;63176;52.678;13.250;2022-12-15T17:30:12;16.92;;;8.32;;
7289;SDS011;63176;52.678;13.250;2022-12-15T17:32:39;17.73;;;9.02;;
7289;SDS011;63176;52.678;13.250;2022-12-15T17:35:05;13.60;;;7.97;;
7289;SDS011;63176;52.678;13.250;2022-12-15T17:37:31;20.35;;;10.27;;
7289;SDS011;63176;52.678;13.250;2022-12-15T17:39:58;16.55;;;9.13;;
7289;SDS011;63176;52.678;13.250;2022-12-15T17:42:24;20.27;;;9.00;;
7289;SDS011;63176;52.678;13.250;2022-12-15T17:44:49;17.67;;;9.53;;
7289;SDS011;63176;52.678;13.250;2022-12-15T17:47:15;18.30;;;9.00;;
7289;SDS011;63176;52.678;13.250;2022-12-15T17:49:41;16.25;;;7.50;;